createdAt,value
2023-01-27T00:01:23.219Z,102929.94
2023-01-27T00:03:52.332Z,102929.63
2023-01-27T00:06:21.654Z,102928.81
2023-01-27T00:08:53.290Z,102925.75
2023-01-27T00:11:41.019Z,102926.63
2023-01-27T00:14:10.196Z,102915.84
2023-01-27T00:16:42.883Z,102914.09
2023-01-27T00:23:45.250Z,102907.88
2023-01-27T00:26:49.543Z,102908.50
2023-01-27T00:29:24.404Z,102903.59
2023-01-27T00:32:12.035Z,102895.75
2023-01-27T00:34:42.383Z,102893.78
2023-01-27T00:37:16.700Z,102889.75
2023-01-27T00:39:55.193Z,102884.31
2023-01-27T00:42:27.529Z,102882.94
2023-01-27T00:45:20.520Z,102874.72
2023-01-27T00:47:50.532Z,102869.28
2023-01-27T00:50:20.178Z,102843.13
2023-01-27T00:52:49.344Z,102827.25
2023-01-27T00:55:19.139Z,102828.72
2023-01-27T00:57:51.784Z,102834.09
2023-01-27T01:00:23.895Z,102836.69
2023-01-27T01:02:53.033Z,102826.16
2023-01-27T01:05:25.545Z,102825.22
2023-01-27T01:07:54.481Z,102820.72
2023-01-27T01:10:23.653Z,102815.72
2023-01-27T01:12:52.619Z,102814.41
2023-01-27T01:15:21.628Z,102807.81
2023-01-27T01:17:50.656Z,102814.53
2023-01-27T01:20:19.653Z,102810.13
2023-01-27T01:22:48.800Z,102820.47
2023-01-27T01:25:17.713Z,102822.72
2023-01-27T01:27:47.734Z,102826.66
2023-01-27T01:30:19.543Z,102812.50
2023-01-27T01:32:48.925Z,102808.25
2023-01-27T01:35:18.485Z,102797.78
2023-01-27T01:37:47.405Z,102803.75
2023-01-27T01:40:19.604Z,102806.03
2023-01-27T01:42:54.672Z,102796.44
2023-01-27T01:45:32.887Z,102805.84
2023-01-27T01:48:07.928Z,102801.16
2023-01-27T01:50:39.044Z,102793.53
2023-01-27T01:53:10.563Z,102799.75
2023-01-27T01:55:41.902Z,102798.78
2023-01-27T01:58:21.880Z,102796.44
2023-01-27T02:00:52.963Z,102780.53
2023-01-27T02:03:23.584Z,102788.88
2023-01-27T02:05:57.395Z,102781.09
2023-01-27T02:08:31.775Z,102784.09
2023-01-27T02:11:00.846Z,102771.22
2023-01-27T02:13:32.706Z,102768.00
2023-01-27T02:16:01.907Z,102776.44
2023-01-27T02:18:32.216Z,102766.88
2023-01-27T02:21:02.079Z,102763.50
2023-01-27T02:33:03.706Z,102733.59
2023-01-27T02:37:05.534Z,102708.31
2023-01-27T02:43:59.548Z,102705.13
2023-01-27T02:46:28.748Z,102712.56
2023-01-27T02:48:58.284Z,102704.81
2023-01-27T02:51:27.914Z,102694.13
2023-01-27T02:54:00.157Z,102672.69
2023-01-27T02:56:30.414Z,102662.59
2023-01-27T02:59:02.490Z,102645.88
2023-01-27T03:01:39.015Z,102661.38
2023-01-27T03:04:09.511Z,102652.28
2023-01-27T03:06:39.455Z,102650.97
2023-01-27T03:09:08.971Z,102662.88
2023-01-27T03:16:56.605Z,102645.84
2023-01-27T03:19:27.542Z,102629.16
2023-01-27T03:21:59.068Z,102628.66
2023-01-27T03:24:28.630Z,102628.34
2023-01-27T03:27:03.601Z,102626.72
2023-01-27T03:29:58.859Z,102626.72
2023-01-27T03:32:38.207Z,102616.72
2023-01-27T03:35:47.615Z,102599.19
2023-01-27T03:38:37.900Z,102606.31
2023-01-27T03:41:25.204Z,102599.28
2023-01-27T03:44:12.724Z,102606.09
2023-01-27T03:46:41.798Z,102598.78
2023-01-27T03:49:11.632Z,102593.28
2023-01-27T03:51:40.534Z,102592.66
2023-01-27T03:54:12.311Z,102588.97
2023-01-27T03:56:41.546Z,102591.94
2023-01-27T03:59:10.899Z,102594.59
2023-01-27T04:01:41.465Z,102625.88
2023-01-27T04:04:30.793Z,102636.09
2023-01-27T04:07:09.014Z,102622.22
2023-01-27T04:09:38.367Z,102616.50
2023-01-27T04:12:08.471Z,102597.13
2023-01-27T04:14:39.785Z,102556.31
2023-01-27T04:17:14.773Z,102546.94
2023-01-27T04:19:48.016Z,102503.09
2023-01-27T04:22:18.476Z,102501.56
2023-01-27T04:24:47.547Z,102526.09
2023-01-27T04:27:16.716Z,102533.53
2023-01-27T04:29:50.285Z,102525.72
2023-01-27T04:32:19.308Z,102508.38
2023-01-27T04:34:53.137Z,102470.06
2023-01-27T04:37:25.264Z,102465.31
2023-01-27T04:39:54.199Z,102485.72
2023-01-27T04:42:26.196Z,102505.06
2023-01-27T04:44:55.100Z,102515.03
2023-01-27T04:47:23.977Z,102532.91
2023-01-27T04:49:53.533Z,102527.09
2023-01-27T04:56:42.473Z,102467.31
2023-01-27T04:59:13.772Z,102476.56
2023-01-27T05:01:42.992Z,102450.91
2023-01-27T05:04:14.016Z,102452.31
2023-01-27T05:06:54.290Z,102477.56
2023-01-27T05:09:36.829Z,102492.25
2023-01-27T05:12:08.491Z,102492.56
2023-01-27T05:14:37.477Z,102495.25
2023-01-27T05:17:06.593Z,102494.22
2023-01-27T05:19:39.194Z,102473.94
2023-01-27T05:22:08.465Z,102453.03
2023-01-27T05:24:37.601Z,102447.28
2023-01-27T05:27:06.968Z,102431.16
2023-01-27T05:29:36.058Z,102416.47
2023-01-27T05:32:05.573Z,102414.22
2023-01-27T05:34:34.705Z,102407.06
2023-01-27T05:37:03.836Z,102395.72
2023-01-27T05:39:42.400Z,102404.81
2023-01-27T05:42:11.824Z,102391.34
2023-01-27T05:44:41.785Z,102391.56
2023-01-27T05:47:12.962Z,102392.59
2023-01-27T05:49:42.123Z,102384.31
2023-01-27T05:52:11.626Z,102384.56
2023-01-27T05:54:40.940Z,102380.66
2023-01-27T05:57:12.439Z,102381.28
2023-01-27T05:59:43.009Z,102379.38
2023-01-27T06:02:12.389Z,102366.38
2023-01-27T06:04:41.375Z,102358.06
2023-01-27T06:07:12.521Z,102365.53
2023-01-27T06:09:41.546Z,102350.25
2023-01-27T06:12:10.588Z,102323.28
2023-01-27T06:14:39.731Z,102308.34
2023-01-27T06:17:08.871Z,102313.03
2023-01-27T06:19:41.574Z,102296.97
2023-01-27T06:22:11.136Z,102289.50
2023-01-27T06:24:43.131Z,102297.97
2023-01-27T06:27:12.077Z,102305.72
2023-01-27T06:29:40.920Z,102300.69
2023-01-27T06:32:10.234Z,102301.69
2023-01-27T06:34:39.213Z,102298.00
2023-01-27T06:37:11.003Z,102296.06
2023-01-27T06:39:40.373Z,102289.56
2023-01-27T06:42:13.006Z,102284.41
2023-01-27T06:44:42.003Z,102281.44
2023-01-27T06:47:11.609Z,102284.88
2023-01-27T06:49:40.780Z,102286.09
2023-01-27T06:52:12.899Z,102270.94
2023-01-27T06:54:42.323Z,102273.69
2023-01-27T06:57:11.624Z,102266.88
2023-01-27T06:59:41.716Z,102260.41
2023-01-27T07:02:14.101Z,102246.75
2023-01-27T07:04:43.142Z,102229.75
2023-01-27T07:07:12.086Z,102219.50
2023-01-27T07:09:52.086Z,102200.97
2023-01-27T07:12:21.861Z,102192.94
2023-01-27T07:14:50.756Z,102186.13
2023-01-27T07:17:20.995Z,102175.03
2023-01-27T07:19:50.108Z,102157.69
2023-01-27T07:22:21.905Z,102155.66
2023-01-27T07:24:51.104Z,102155.81
2023-01-27T07:27:21.054Z,102144.66
2023-01-27T07:29:50.295Z,102143.00
2023-01-27T07:32:22.239Z,102143.19
2023-01-27T07:34:54.201Z,102139.63
2023-01-27T07:37:24.008Z,102126.00
2023-01-27T07:39:53.137Z,102125.50
2023-01-27T07:42:22.558Z,102128.75
2023-01-27T07:44:51.693Z,102121.28
2023-01-27T07:47:21.416Z,102103.78
2023-01-27T07:49:50.398Z,102095.53
2023-01-27T07:52:21.420Z,102087.25
2023-01-27T07:54:50.493Z,102094.88
2023-01-27T07:57:22.453Z,102076.22
2023-01-27T07:59:56.109Z,102059.53
2023-01-27T08:02:26.786Z,102051.09
2023-01-27T08:04:55.830Z,102046.06
2023-01-27T08:07:24.781Z,102042.22
2023-01-27T08:09:55.696Z,102032.13
2023-01-27T08:12:24.737Z,102044.97
2023-01-27T08:14:53.623Z,102023.06
2023-01-27T08:17:23.525Z,102004.41
2023-01-27T08:19:52.955Z,102007.81
2023-01-27T08:22:24.526Z,101996.13
2023-01-27T08:24:53.628Z,101992.41
2023-01-27T08:27:25.541Z,101981.88
2023-01-27T08:29:55.127Z,101981.06
2023-01-27T08:32:24.323Z,101966.00
2023-01-27T08:34:53.435Z,101958.84
2023-01-27T08:37:23.258Z,101953.00
2023-01-27T08:39:55.341Z,101957.72
2023-01-27T08:42:24.410Z,101951.22
2023-01-27T08:44:56.721Z,101943.16
2023-01-27T08:47:25.703Z,101938.03
2023-01-27T08:49:57.786Z,101935.75
2023-01-27T08:52:28.521Z,101923.41
2023-01-27T08:55:00.265Z,101918.53
2023-01-27T08:57:34.704Z,101910.03
2023-01-27T09:00:07.739Z,101905.91
2023-01-27T09:02:37.209Z,101907.94
2023-01-27T09:05:06.486Z,101893.34
2023-01-27T09:07:36.125Z,101884.50
2023-01-27T09:10:14.532Z,101892.31
2023-01-27T09:12:45.770Z,101886.06
2023-01-27T09:15:16.609Z,101883.75
2023-01-27T09:17:48.416Z,101891.94
2023-01-27T09:20:17.575Z,101876.03
2023-01-27T09:22:46.965Z,101874.94
2023-01-27T09:25:17.988Z,101862.25
2023-01-27T09:27:47.498Z,101857.03
2023-01-27T09:30:19.676Z,101842.22
2023-01-27T09:32:49.440Z,101843.44
2023-01-27T09:35:18.827Z,101840.41
2023-01-27T09:37:57.393Z,101833.59
2023-01-27T09:40:58.691Z,101834.13
2023-01-27T09:43:49.713Z,101827.50
2023-01-27T09:46:56.049Z,101817.59
2023-01-27T09:49:33.476Z,101817.41
2023-01-27T09:52:47.135Z,101821.47
2023-01-27T09:55:31.974Z,101819.53
2023-01-27T09:58:27.941Z,101807.56
2023-01-27T10:01:18.643Z,101805.28
2023-01-27T10:04:15.192Z,101812.59
2023-01-27T10:06:58.697Z,101816.91
2023-01-27T10:10:12.348Z,101804.31
2023-01-27T10:13:03.583Z,101804.31
2023-01-27T10:15:42.080Z,101807.19
2023-01-27T10:18:49.597Z,101802.66
2023-01-27T10:21:40.387Z,101800.50
2023-01-27T10:24:48.944Z,101798.34
2023-01-27T10:27:26.067Z,101795.47
2023-01-27T10:30:15.245Z,101790.69
2023-01-27T10:32:53.223Z,101780.44
2023-01-27T10:36:03.672Z,101774.13
2023-01-27T10:38:41.840Z,101780.06
2023-01-27T10:41:42.649Z,101780.72
2023-01-27T10:44:23.414Z,101766.72
2023-01-27T10:46:58.166Z,101765.16
2023-01-27T10:49:38.995Z,101767.00
2023-01-27T10:52:20.019Z,101761.66
2023-01-27T10:54:59.997Z,101750.44
2023-01-27T10:57:41.108Z,101754.81
2023-01-27T11:00:57.916Z,101744.78
2023-01-27T11:03:38.905Z,101756.38
2023-01-27T11:06:25.417Z,101755.16
2023-01-27T11:09:07.820Z,101752.56
2023-01-27T11:11:46.322Z,101748.81
2023-01-27T11:14:30.247Z,101747.88
2023-01-27T11:17:37.470Z,101727.66
2023-01-27T11:20:25.963Z,101737.53
2023-01-27T11:23:07.341Z,101743.03
2023-01-27T11:25:58.565Z,101742.69
2023-01-27T11:28:52.268Z,101735.91
2023-01-27T11:31:58.403Z,101724.19
2023-01-27T11:34:43.085Z,101711.53
2023-01-27T11:37:18.149Z,101700.22
2023-01-27T11:39:47.651Z,101700.41
2023-01-27T11:42:18.196Z,101683.44
2023-01-27T11:44:47.441Z,101675.38
2023-01-27T11:47:30.117Z,101667.44
2023-01-27T11:50:01.550Z,101678.59
2023-01-27T11:52:33.145Z,101672.69
2023-01-27T11:55:16.127Z,101657.88
2023-01-27T11:58:08.918Z,101658.09
2023-01-27T12:01:05.293Z,101660.19
2023-01-27T12:03:52.412Z,101652.84
2023-01-27T12:06:30.406Z,101657.13
2023-01-27T12:08:59.206Z,101651.00
2023-01-27T12:11:30.694Z,101647.31
2023-01-27T12:14:06.365Z,101654.91
2023-01-27T12:16:44.275Z,101656.94
2023-01-27T12:19:35.891Z,101656.06
2023-01-27T12:22:15.743Z,101647.09
2023-01-27T12:24:51.010Z,101645.75
2023-01-27T12:27:35.443Z,101648.75
2023-01-27T12:30:08.652Z,101643.00
2023-01-27T12:32:48.053Z,101645.66
2023-01-27T12:35:27.080Z,101649.72
2023-01-27T12:38:28.071Z,101649.91
2023-01-27T12:41:06.300Z,101639.22
2023-01-27T12:43:56.464Z,101627.91
2023-01-27T12:46:30.895Z,101624.69
2023-01-27T12:49:18.604Z,101639.47
2023-01-27T12:52:00.117Z,101630.31
2023-01-27T12:54:33.441Z,101631.22
2023-01-27T12:57:15.166Z,101631.53
2023-01-27T12:59:51.480Z,101634.72
2023-01-27T13:02:29.228Z,101621.47
2023-01-27T13:05:05.932Z,101616.63
2023-01-27T13:07:45.151Z,101613.16
2023-01-27T13:10:21.828Z,101620.47
2023-01-27T13:12:55.088Z,101621.31
2023-01-27T13:15:32.022Z,101624.25
2023-01-27T13:18:13.079Z,101618.81
2023-01-27T13:20:47.551Z,101625.16
2023-01-27T13:23:24.394Z,101621.47
2023-01-27T13:25:59.011Z,101627.13
2023-01-27T13:28:51.759Z,101626.38
2023-01-27T13:31:33.795Z,101634.50
2023-01-27T13:34:18.466Z,101636.00
2023-01-27T13:37:19.800Z,101637.47
2023-01-27T13:40:02.459Z,101638.94
2023-01-27T13:42:55.690Z,101648.81
2023-01-27T13:45:33.924Z,101647.06
2023-01-27T13:48:34.014Z,101657.16
2023-01-27T13:51:23.607Z,101660.34
2023-01-27T13:54:04.607Z,101654.53
2023-01-27T13:56:55.035Z,101650.22
2023-01-27T13:59:47.600Z,101662.53
2023-01-27T14:02:44.173Z,101660.19
2023-01-27T14:05:33.136Z,101662.28
2023-01-27T14:08:32.553Z,101663.56
2023-01-27T14:11:30.963Z,101662.75
2023-01-27T14:14:22.580Z,101661.13
2023-01-27T14:17:27.234Z,101664.16
2023-01-27T14:20:15.453Z,101666.91
2023-01-27T14:23:03.358Z,101670.13
2023-01-27T14:25:55.735Z,101661.78
2023-01-27T14:28:57.727Z,101659.78
2023-01-27T14:31:46.071Z,101669.06
2023-01-27T14:34:42.908Z,101655.06
2023-01-27T14:37:37.266Z,101659.50
2023-01-27T14:40:29.062Z,101655.78
2023-01-27T14:43:19.188Z,101649.81
2023-01-27T14:46:00.894Z,101654.66
2023-01-27T14:49:03.055Z,101650.50
2023-01-27T14:51:40.549Z,101648.34
2023-01-27T14:54:18.696Z,101644.28
2023-01-27T14:57:34.613Z,101641.56
2023-01-27T15:00:33.898Z,101646.44
2023-01-27T15:03:08.585Z,101644.81
2023-01-27T15:06:17.214Z,101651.19
2023-01-27T15:09:33.393Z,101655.56
2023-01-27T15:12:39.514Z,101648.19
2023-01-27T15:15:30.073Z,101635.81
2023-01-27T15:18:09.966Z,101633.41
2023-01-27T15:21:15.627Z,101634.59
2023-01-27T15:24:05.862Z,101640.91
2023-01-27T15:26:37.536Z,101632.41
2023-01-27T15:29:07.879Z,101631.75
2023-01-27T15:31:37.046Z,101636.59
2023-01-27T15:34:06.195Z,101633.59
2023-01-27T15:36:39.331Z,101635.22
2023-01-27T15:39:11.595Z,101630.97
2023-01-27T15:41:58.623Z,101625.22
2023-01-27T15:44:42.669Z,101628.47
2023-01-27T15:47:20.870Z,101615.94
2023-01-27T15:50:11.770Z,101609.59
2023-01-27T15:52:48.967Z,101602.38
2023-01-27T15:55:31.025Z,101603.13
2023-01-27T15:58:19.718Z,101619.59
2023-01-27T16:00:54.986Z,101629.50
2023-01-27T16:03:38.701Z,101631.97
2023-01-27T16:06:13.677Z,101635.44
2023-01-27T16:08:57.587Z,101644.50
2023-01-27T16:11:32.378Z,101659.47
2023-01-27T16:14:13.784Z,101669.56
2023-01-27T16:16:51.855Z,101669.38
2023-01-27T16:19:35.326Z,101684.75
2023-01-27T16:22:14.066Z,101678.03
2023-01-27T16:24:57.079Z,101676.47
2023-01-27T16:27:41.004Z,101669.94
2023-01-27T16:30:15.935Z,101669.94
2023-01-27T16:33:28.126Z,101679.19
2023-01-27T16:36:18.146Z,101685.72
2023-01-27T16:38:49.181Z,101687.00
2023-01-27T16:41:40.109Z,101699.63
2023-01-27T16:44:18.191Z,101708.38
2023-01-27T16:46:51.606Z,101711.16
2023-01-27T16:49:36.752Z,101719.44
2023-01-27T16:52:07.423Z,101718.75
2023-01-27T16:54:43.611Z,101714.16
2023-01-27T16:57:46.819Z,101718.94
2023-01-27T17:00:24.180Z,101726.47
2023-01-27T17:02:56.753Z,101739.72
2023-01-27T17:05:28.889Z,101744.66
2023-01-27T17:08:44.544Z,101749.28
2023-01-27T17:11:27.025Z,101760.13
2023-01-27T17:14:04.598Z,101758.28
2023-01-27T17:16:40.947Z,101763.44
2023-01-27T17:19:39.101Z,101764.38
2023-01-27T17:22:23.632Z,101775.00
2023-01-27T17:25:03.185Z,101777.88
2023-01-27T17:27:41.712Z,101784.84
2023-01-27T17:30:32.616Z,101783.97
2023-01-27T17:33:03.651Z,101787.97
2023-01-27T17:35:39.810Z,101783.81
2023-01-27T17:38:17.614Z,101786.44
2023-01-27T17:40:50.406Z,101783.69
2023-01-27T17:43:37.047Z,101780.47
2023-01-27T17:46:27.528Z,101787.47
2023-01-27T17:49:02.034Z,101783.97
2023-01-27T17:51:37.528Z,101790.53
2023-01-27T17:54:24.361Z,101792.16
2023-01-27T17:57:06.787Z,101795.78
2023-01-27T17:59:40.090Z,101788.78
2023-01-27T18:02:27.777Z,101781.78
2023-01-27T18:05:04.330Z,101785.94
2023-01-27T18:07:36.446Z,101781.84
2023-01-27T18:10:24.157Z,101789.00
2023-01-27T18:12:54.119Z,101807.09
2023-01-27T18:15:38.400Z,101804.47
2023-01-27T18:18:23.960Z,101813.97
2023-01-27T18:21:10.961Z,101826.06
2023-01-27T18:23:48.852Z,101833.00
2023-01-27T18:26:17.923Z,101842.47
2023-01-27T18:28:51.923Z,101841.44
2023-01-27T18:31:27.770Z,101838.97
2023-01-27T18:33:58.711Z,101838.03
2023-01-27T18:36:35.632Z,101834.31
2023-01-27T18:39:25.761Z,101838.63
2023-01-27T18:41:55.563Z,101834.84
2023-01-27T18:44:30.702Z,101829.31
2023-01-27T18:47:22.972Z,101828.50
2023-01-27T18:49:58.134Z,101836.84
2023-01-27T18:52:27.524Z,101832.97
2023-01-27T18:55:07.654Z,101832.59
2023-01-27T18:57:36.654Z,101822.72
2023-01-27T19:00:06.642Z,101816.09
2023-01-27T19:02:35.875Z,101814.38
2023-01-27T19:05:15.995Z,101816.53
2023-01-27T19:07:45.842Z,101815.44
2023-01-27T19:10:26.221Z,101824.72
2023-01-27T19:13:05.471Z,101821.03
2023-01-27T19:15:38.123Z,101823.66
2023-01-27T19:18:38.485Z,101829.44
2023-01-27T19:21:07.675Z,101833.09
2023-01-27T19:23:36.645Z,101841.81
2023-01-27T19:26:08.967Z,101838.59
2023-01-27T19:28:39.580Z,101843.03
2023-01-27T19:31:09.005Z,101836.94
2023-01-27T19:33:39.394Z,101838.28
2023-01-27T19:36:33.718Z,101839.44
2023-01-27T19:39:08.843Z,101826.81
2023-01-27T19:41:38.037Z,101832.31
2023-01-27T19:44:11.370Z,101838.53
2023-01-27T19:46:42.248Z,101832.50
2023-01-27T19:49:19.989Z,101829.84
2023-01-27T19:51:49.779Z,101837.66
2023-01-27T19:54:18.647Z,101842.44
2023-01-27T19:56:47.753Z,101828.31
2023-01-27T19:59:16.892Z,101827.78
2023-01-27T20:01:45.851Z,101835.56
2023-01-27T20:04:14.907Z,101830.78
2023-01-27T20:06:43.907Z,101831.72
2023-01-27T20:09:12.806Z,101835.84
2023-01-27T20:11:43.962Z,101850.50
2023-01-27T20:14:15.567Z,101858.59
2023-01-27T20:16:44.857Z,101853.25
2023-01-27T20:19:18.440Z,101855.38
2023-01-27T20:21:47.931Z,101844.25
2023-01-27T20:24:20.583Z,101851.06
2023-01-27T20:26:49.754Z,101854.41
2023-01-27T20:29:18.692Z,101853.19
2023-01-27T20:31:47.641Z,101859.88
2023-01-27T20:34:16.841Z,101846.31
2023-01-27T20:36:47.354Z,101838.38
2023-01-27T20:39:22.166Z,101849.44
2023-01-27T20:41:52.077Z,101853.06
2023-01-27T20:44:21.113Z,101843.34
2023-01-27T20:46:50.494Z,101833.75
2023-01-27T20:49:19.523Z,101836.66
2023-01-27T20:51:48.606Z,101825.94
2023-01-27T20:54:17.747Z,101824.66
2023-01-27T20:56:46.631Z,101816.50
2023-01-27T20:59:15.728Z,101818.50
2023-01-27T21:01:46.888Z,101811.00
2023-01-27T21:04:15.907Z,101809.28
2023-01-27T21:06:45.380Z,101812.38
2023-01-27T21:09:14.344Z,101817.22
2023-01-27T21:11:46.962Z,101808.59
2023-01-27T21:14:18.576Z,101806.19
2023-01-27T21:16:50.524Z,101812.63
2023-01-27T21:19:22.512Z,101807.31
2023-01-27T21:21:52.220Z,101813.22
2023-01-27T21:24:21.208Z,101811.03
2023-01-27T21:26:52.115Z,101808.25
2023-01-27T21:29:22.292Z,101813.09
2023-01-27T21:31:51.427Z,101811.25
2023-01-27T21:34:20.696Z,101805.22
2023-01-27T21:36:57.645Z,101810.31
2023-01-27T21:39:26.667Z,101805.56
2023-01-27T21:41:55.526Z,101797.28
2023-01-27T21:44:49.232Z,101792.56
2023-01-27T21:47:31.994Z,101792.69
2023-01-27T21:50:09.488Z,101794.97
2023-01-27T21:52:42.636Z,101796.03
2023-01-27T21:55:40.631Z,101786.50
2023-01-27T21:58:12.929Z,101788.63
2023-01-27T22:01:15.056Z,101779.66
2023-01-27T22:03:44.689Z,101782.22
2023-01-27T22:06:13.773Z,101783.09
2023-01-27T22:08:42.830Z,101783.56
2023-01-27T22:11:12.611Z,101777.38
2023-01-27T22:13:44.423Z,101776.19
2023-01-27T22:16:17.516Z,101772.72
2023-01-27T22:18:46.569Z,101771.25
2023-01-27T22:21:15.479Z,101773.88
2023-01-27T22:23:45.829Z,101776.19
2023-01-27T22:26:18.829Z,101770.25
2023-01-27T22:28:50.492Z,101781.06
2023-01-27T22:31:20.760Z,101775.97
2023-01-27T22:33:49.698Z,101777.50
2023-01-27T22:36:21.301Z,101774.81
2023-01-27T22:38:52.168Z,101776.63
2023-01-27T22:41:23.112Z,101770.66
2023-01-27T22:43:52.268Z,101765.28
2023-01-27T22:49:39.455Z,101763.06
2023-01-27T22:52:17.492Z,101771.59
2023-01-27T22:55:06.918Z,101770.66
2023-01-27T22:57:39.157Z,101755.34
2023-01-27T23:00:10.318Z,101765.66
2023-01-27T23:02:42.467Z,101763.69
2023-01-27T23:05:17.593Z,101762.66
2023-01-27T23:07:52.235Z,101762.06
2023-01-27T23:10:21.258Z,101764.22
2023-01-27T23:12:50.882Z,101761.38
2023-01-27T23:15:19.999Z,101761.22
2023-01-27T23:17:54.730Z,101758.81
2023-01-27T23:20:25.690Z,101764.22
2023-01-27T23:22:54.754Z,101767.44
2023-01-27T23:25:23.580Z,101767.44
2023-01-27T23:27:52.486Z,101756.16
2023-01-27T23:30:21.498Z,101763.06
2023-01-27T23:32:50.394Z,101760.50
2023-01-27T23:35:19.377Z,101747.19
2023-01-27T23:37:49.384Z,101748.09
2023-01-27T23:40:18.769Z,101738.19
2023-01-27T23:42:47.618Z,101736.00
2023-01-27T23:45:16.773Z,101728.41
2023-01-27T23:47:45.849Z,101733.81
2023-01-27T23:50:14.944Z,101726.00
2023-01-27T23:52:44.251Z,101720.22
2023-01-27T23:55:14.510Z,101719.09
2023-01-27T23:57:46.613Z,101721.16
